Time;durP1;ratioP1;P1;durP2;ratioP2;P2;SDS_P1;SDS_P2;PMS_P1;PMS_P2;Temp;Humidity;BMP_temperature;BMP_pressure;BME280_temperature;BME280_humidity;BME280_pressure;Samples;Min_cycle;Max_cycle;Signal;HPM_P1;HPM_P2
2023/08/07 00:01:43;;;;;;;23.23;11.77;;;;;;;30.28;74.47;100845.78;5055315;28;71037;-45
2023/08/07 00:04:32;;;;;;;21.33;11.85;;;;;;;30.38;74.11;100844.47;5056343;28;66873;-42
2023/08/07 00:07:24;;;;;;;29.67;11.60;;;;;;;30.33;70.97;100830.75;5054396;28;70993;-44
2023/08/07 00:10:14;;;;;;;18.30;10.57;;;;;;;30.37;73.62;100842.78;5050237;28;67347;-44
2023/08/07 00:13:03;;;;;;;14.38;10.57;;;;;;;30.44;74.66;100854.41;5054739;28;71323;-43
2023/08/07 00:15:52;;;;;;;20.00;10.77;;;;;;;30.01;73.88;100777.44;5057899;28;67362;-44
2023/08/07 00:18:42;;;;;;;15.55;10.73;;;;;;;30.44;74.29;100846.28;5053553;28;71270;-44
2023/08/07 00:21:31;;;;;;;21.88;10.23;;;;;;;30.20;73.42;100788.34;5057321;28;67246;-45
2023/08/07 00:24:21;;;;;;;29.15;10.75;;;;;;;30.63;72.46;100856.16;5058119;28;71116;-42
2023/08/07 00:27:11;;;;;;;28.77;10.63;;;;;;;30.68;74.25;100861.75;5055210;28;66761;-42
2023/08/07 00:30:01;;;;;;;18.05;9.68;;;;;;;30.67;75.81;100875.50;5050788;28;71088;-44
2023/08/07 00:32:50;;;;;;;15.10;9.73;;;;;;;30.66;76.64;100871.97;5055341;28;66379;-44
2023/08/07 00:35:40;;;;;;;26.25;10.30;;;;;;;30.54;74.88;100848.53;5046304;28;70807;-43
2023/08/07 00:38:30;;;;;;;21.80;10.38;;;;;;;30.71;76.20;100874.84;5053257;28;67405;-43
2023/08/07 00:41:20;;;;;;;23.33;10.65;;;;;;;30.61;73.67;100850.13;5054890;28;70121;-43
2023/08/07 00:44:13;;;;;;;13.38;8.88;;;;;;;30.59;74.68;100846.84;5057019;28;44531;-41
2023/08/07 00:47:03;;;;;;;16.80;9.35;;;;;;;30.84;73.47;100886.66;5056914;28;70502;-44
2023/08/07 00:49:53;;;;;;;18.42;9.57;;;;;;;30.93;71.81;100880.75;5055113;28;66948;-45
2023/08/07 00:52:42;;;;;;;24.08;8.88;;;;;;;30.94;70.67;100878.88;5054973;28;70538;-43
2023/08/07 00:55:32;;;;;;;11.88;7.72;;;;;;;31.02;70.00;100883.19;5054782;28;67150;-44
2023/08/07 00:58:21;;;;;;;11.43;7.55;;;;;;;30.91;69.36;100860.34;5056764;28;71541;-42
2023/08/07 01:01:11;;;;;;;14.07;8.05;;;;;;;31.00;69.51;100880.69;5050199;28;67192;-43
2023/08/07 01:04:00;;;;;;;10.20;7.75;;;;;;;31.02;68.96;100877.78;5058235;28;70446;-46
2023/08/07 01:06:50;;;;;;;9.02;7.47;;;;;;;31.12;68.93;100899.75;5055791;28;66854;-44
2023/08/07 01:09:40;;;;;;;9.98;7.15;;;;;;;31.03;68.83;100871.28;5059689;28;70878;-44
2023/08/07 01:12:43;;;;;;;9.27;6.90;;;;;;;31.00;68.29;100869.84;5048659;28;66943;-44
2023/08/07 01:15:35;;;;;;;10.48;9.30;;;;;;;30.55;68.61;100783.34;5057335;28;71228;-44
2023/08/07 01:18:26;;;;;;;12.02;8.82;;;;;;;31.21;68.42;100893.03;5043662;28;66574;-43
2023/08/07 01:21:19;;;;;;;9.83;7.77;;;;;;;31.22;68.38;100888.44;5059533;28;70739;-43
2023/08/07 01:24:09;;;;;;;10.98;7.40;;;;;;;30.84;68.27;100817.09;5051606;28;67210;-44
2023/08/07 01:27:08;;;;;;;8.65;7.75;;;;;;;30.70;68.04;100791.13;5059348;28;70311;-43
2023/08/07 01:30:26;;;;;;;6.90;6.32;;;;;;;31.22;68.07;100904.69;5058141;28;67092;-43
2023/08/07 01:33:32;;;;;;;7.78;6.97;;;;;;;30.86;67.98;100850.19;5059215;28;69449;-45
2023/08/07 01:36:25;;;;;;;7.95;6.63;;;;;;;30.72;67.83;100808.81;5057567;28;66836;-44
2023/08/07 01:39:15;;;;;;;8.43;6.88;;;;;;;31.14;67.45;100876.81;5052087;28;71269;-44
2023/08/07 01:42:05;;;;;;;8.60;6.22;;;;;;;31.32;67.50;100883.34;5060452;28;66740;-44
2023/08/07 01:44:56;;;;;;;7.97;6.00;;;;;;;31.38;67.93;100894.13;5055999;28;71099;-44
2023/08/07 01:47:45;;;;;;;10.18;6.22;;;;;;;31.47;67.34;100893.84;5059830;28;67281;-47
2023/08/07 01:50:35;;;;;;;6.78;5.60;;;;;;;31.47;67.39;100897.38;5057686;28;71163;-44
2023/08/07 01:53:25;;;;;;;6.15;5.65;;;;;;;31.48;67.25;100898.22;5058296;28;66664;-45
2023/08/07 01:56:15;;;;;;;8.85;5.88;;;;;;;31.52;67.42;100904.84;5053637;28;71057;-45
2023/08/07 01:59:04;;;;;;;6.05;5.45;;;;;;;31.48;67.30;100888.22;5059558;28;67408;-44
2023/08/07 02:01:54;;;;;;;8.60;5.55;;;;;;;31.53;66.50;100891.06;5059097;28;71073;-43
2023/08/07 02:04:43;;;;;;;5.28;4.78;;;;;;;31.63;67.42;100890.56;5060653;28;67310;-42
2023/08/07 02:07:33;;;;;;;6.50;5.22;;;;;;;31.65;67.08;100877.59;5057941;28;70720;-43
2023/08/07 02:10:23;;;;;;;5.53;4.97;;;;;;;31.69;67.13;100877.97;5060397;28;67288;-43
2023/08/07 02:13:13;;;;;;;5.28;4.78;;;;;;;31.58;66.97;100866.81;5054817;28;70483;-43
2023/08/07 02:16:03;;;;;;;5.70;5.20;;;;;;;31.74;67.03;100886.28;5068401;28;66678;-44
2023/08/07 02:18:53;;;;;;;5.50;5.10;;;;;;;31.74;66.96;100892.50;5055225;28;70397;-44
2023/08/07 02:21:42;;;;;;;7.72;5.18;;;;;;;31.78;66.91;100882.03;5055347;28;67337;-43
2023/08/07 02:24:32;;;;;;;5.95;5.15;;;;;;;31.75;66.90;100875.19;5055395;28;71040;-42
2023/08/07 02:27:22;;;;;;;5.65;5.25;;;;;;;31.85;66.72;100887.41;5056001;28;66370;-43
2023/08/07 02:30:11;;;;;;;9.20;4.68;;;;;;;31.86;66.61;100889.88;5053304;28;71194;-42
2023/08/07 02:33:01;;;;;;;5.32;4.25;;;;;;;31.88;66.46;100879.63;5059101;28;67238;-43
2023/08/07 02:35:51;;;;;;;5.50;4.95;;;;;;;31.81;66.44;100870.72;5058890;28;70394;-41
2023/08/07 02:38:41;;;;;;;4.95;4.03;;;;;;;31.96;66.71;100873.09;5049436;28;67230;-43
2023/08/07 02:41:31;;;;;;;4.60;4.20;;;;;;;31.96;66.17;100879.34;5052320;28;71364;-42
2023/08/07 02:44:21;;;;;;;6.53;4.70;;;;;;;31.99;66.31;100878.06;5054311;28;66952;-43
2023/08/07 02:47:10;;;;;;;5.28;4.35;;;;;;;32.00;66.71;100875.13;5049278;28;71609;-45
2023/08/07 02:49:59;;;;;;;4.80;3.90;;;;;;;32.02;66.09;100873.00;5053922;28;66783;-42
2023/08/07 02:52:50;;;;;;;10.15;4.13;;;;;;;32.09;65.86;100867.47;5051978;28;71011;-43
2023/08/07 02:55:39;;;;;;;4.75;3.88;;;;;;;32.10;66.00;100871.06;5055534;28;66580;-44
2023/08/07 02:58:29;;;;;;;5.75;3.65;;;;;;;32.16;65.95;100862.00;5068825;28;71088;-44
2023/08/07 03:01:20;;;;;;;4.22;3.65;;;;;;;32.15;65.72;100860.31;5050690;28;67315;-43
2023/08/07 03:04:09;;;;;;;3.70;3.17;;;;;;;32.21;65.90;100859.41;5050306;28;71172;-43
2023/08/07 03:06:59;;;;;;;5.70;3.13;;;;;;;32.21;65.61;100859.41;5055965;28;66577;-43
2023/08/07 03:09:49;;;;;;;6.55;3.92;;;;;;;32.22;65.53;100848.31;5054921;28;70201;-43
2023/08/07 03:12:39;;;;;;;4.85;3.55;;;;;;;32.24;65.47;100837.25;5060743;28;66611;-41
2023/08/07 03:15:29;;;;;;;5.72;3.40;;;;;;;32.30;65.42;100844.44;5055614;28;70835;-43
2023/08/07 03:18:19;;;;;;;6.32;3.65;;;;;;;32.24;65.34;100820.94;5055328;28;66450;-42
2023/08/07 03:21:08;;;;;;;4.10;3.70;;;;;;;32.35;65.43;100832.91;5056971;28;71135;-42
2023/08/07 03:23:58;;;;;;;4.45;3.35;;;;;;;32.37;65.23;100826.16;5046957;28;67200;-43
2023/08/07 03:26:49;;;;;;;5.47;3.50;;;;;;;32.23;65.13;100797.56;5051420;28;70389;-43
2023/08/07 03:29:38;;;;;;;5.78;3.45;;;;;;;32.40;65.23;100809.44;5067176;28;67213;-43
2023/08/07 03:32:28;;;;;;;4.53;3.65;;;;;;;32.35;65.09;100822.88;5048328;28;70811;-43
2023/08/07 03:35:17;;;;;;;3.88;3.08;;;;;;;32.44;65.03;100813.31;5057876;28;67264;-42
2023/08/07 03:38:07;;;;;;;3.45;3.15;;;;;;;32.51;65.16;100815.13;5060635;28;71229;-44
2023/08/07 03:40:57;;;;;;;3.90;3.50;;;;;;;32.38;64.95;100789.84;5063140;28;67258;-44
2023/08/07 03:43:46;;;;;;;3.75;3.28;;;;;;;32.34;64.92;100777.78;5061624;28;71503;-43
2023/08/07 03:46:36;;;;;;;5.15;3.08;;;;;;;32.51;64.50;100804.28;5055864;28;66376;-42
2023/08/07 03:49:25;;;;;;;4.18;3.30;;;;;;;32.59;64.90;100809.38;5053937;28;70381;-43
2023/08/07 03:52:15;;;;;;;7.72;3.28;;;;;;;32.61;64.70;100809.97;5048601;28;67246;-43
2023/08/07 03:55:05;;;;;;;3.55;3.03;;;;;;;32.62;64.75;100822.47;5052720;28;70894;-44
2023/08/07 03:57:56;;;;;;;4.63;3.22;;;;;;;32.12;64.42;100735.94;5050616;28;66160;-43
2023/08/07 04:00:46;;;;;;;3.35;3.05;;;;;;;32.66;64.63;100801.94;5052523;28;71389;-43
2023/08/07 04:03:36;;;;;;;5.65;3.25;;;;;;;32.58;64.62;100783.28;5057780;28;66247;-44
2023/08/07 04:06:26;;;;;;;3.60;2.60;;;;;;;32.68;64.31;100778.06;5055538;28;70753;-44
2023/08/07 04:09:16;;;;;;;4.57;3.10;;;;;;;32.69;64.20;100794.16;5043965;28;67127;-44
2023/08/07 04:12:06;;;;;;;4.65;3.10;;;;;;;32.63;64.22;100784.22;5055254;28;69994;-43
2023/08/07 04:14:56;;;;;;;3.83;2.53;;;;;;;32.74;64.38;100798.91;5056519;28;66835;-44
2023/08/07 04:17:46;;;;;;;5.72;3.22;;;;;;;32.75;64.04;100778.81;5051096;28;70706;-43
2023/08/07 04:20:36;;;;;;;4.13;2.78;;;;;;;32.78;64.22;100783.75;5046889;28;67700;-43
2023/08/07 04:23:26;;;;;;;4.53;3.40;;;;;;;32.77;64.24;100781.31;5056037;28;71127;-43
2023/08/07 04:26:15;;;;;;;6.47;3.70;;;;;;;32.74;63.93;100766.28;5050593;28;66910;-43
2023/08/07 04:29:05;;;;;;;5.00;3.40;;;;;;;32.83;64.04;100770.31;5049253;28;71656;-42
2023/08/07 04:31:55;;;;;;;4.05;2.67;;;;;;;32.74;63.87;100741.84;5046640;28;66552;-42
2023/08/07 04:34:44;;;;;;;3.92;2.85;;;;;;;32.82;64.01;100741.50;5058017;28;71203;-42
2023/08/07 04:37:33;;;;;;;6.05;3.40;;;;;;;32.72;63.52;100727.66;5048269;28;66645;-42
2023/08/07 04:40:22;;;;;;;4.28;2.78;;;;;;;32.91;63.66;100750.94;5050376;28;70804;-44
2023/08/07 04:43:12;;;;;;;4.55;2.53;;;;;;;32.89;63.27;100739.47;5046280;28;67253;-44
2023/08/07 04:46:02;;;;;;;3.17;2.47;;;;;;;32.89;63.32;100736.75;5052382;28;71095;-43
2023/08/07 04:48:52;;;;;;;3.42;3.03;;;;;;;32.80;63.37;100713.72;5051175;28;66372;-44
2023/08/07 04:51:42;;;;;;;2.95;2.65;;;;;;;32.65;63.41;100694.34;5051887;28;70322;-44
2023/08/07 04:54:31;;;;;;;9.00;3.00;;;;;;;32.85;63.03;100708.41;5037188;28;66480;-43
2023/08/07 04:57:21;;;;;;;3.65;2.97;;;;;;;33.01;62.94;100716.91;5050468;28;70969;-44
2023/08/07 05:00:11;;;;;;;4.72;3.20;;;;;;;33.06;63.25;100719.75;5057774;28;67102;-43
2023/08/07 05:03:01;;;;;;;3.13;2.83;;;;;;;33.07;62.80;100715.97;5049801;28;71167;-43
2023/08/07 05:05:50;;;;;;;5.13;2.80;;;;;;;32.91;63.06;100685.72;5052387;28;66689;-46
2023/08/07 05:08:40;;;;;;;4.43;3.15;;;;;;;33.08;62.96;100718.44;5061082;28;71581;-44
2023/08/07 05:11:29;;;;;;;4.47;2.83;;;;;;;33.01;62.76;100697.91;5061922;28;67805;-43
2023/08/07 05:14:19;;;;;;;3.28;2.85;;;;;;;33.15;62.87;100707.44;5056889;28;70051;-43
2023/08/07 05:17:08;;;;;;;7.30;3.53;;;;;;;33.16;62.73;100692.81;5055820;28;67319;-45
2023/08/07 05:19:58;;;;;;;5.32;3.38;;;;;;;33.17;62.54;100686.28;5056070;28;71212;-45
2023/08/07 05:22:48;;;;;;;4.97;3.05;;;;;;;33.21;62.57;100686.63;5053443;28;67238;-45
2023/08/07 05:25:38;;;;;;;4.03;3.30;;;;;;;32.95;62.68;100634.44;5055803;28;70481;-46
2023/08/07 05:28:27;;;;;;;6.70;3.08;;;;;;;33.19;62.11;100676.00;5058203;28;65872;-44
2023/08/07 05:31:17;;;;;;;8.07;3.90;;;;;;;33.08;62.19;100649.69;5059323;28;71093;-46
2023/08/07 05:34:06;;;;;;;8.20;3.75;;;;;;;33.30;62.32;100672.41;5055084;28;66517;-45
2023/08/07 05:36:56;;;;;;;3.80;3.50;;;;;;;33.33;62.21;100666.50;5058533;28;70279;-45
2023/08/07 05:39:46;;;;;;;4.22;3.83;;;;;;;33.10;62.01;100623.09;5059838;28;66006;-46
2023/08/07 05:42:35;;;;;;;3.50;3.20;;;;;;;33.27;62.01;100644.91;5059798;28;70801;-45
2023/08/07 05:45:25;;;;;;;4.30;3.60;;;;;;;33.41;62.09;100667.19;5046352;28;67202;-45
2023/08/07 05:48:16;;;;;;;4.20;3.80;;;;;;;33.41;61.77;100648.97;5050655;28;70148;-45
2023/08/07 05:51:06;;;;;;;4.53;4.13;;;;;;;33.06;61.88;100586.59;5058905;28;66602;-43
2023/08/07 05:53:56;;;;;;;4.18;3.75;;;;;;;33.42;61.91;100630.75;5059726;28;71252;-43
2023/08/07 05:56:45;;;;;;;4.43;3.72;;;;;;;33.45;61.74;100624.84;5055096;28;66358;-44
2023/08/07 05:59:35;;;;;;;3.80;3.50;;;;;;;33.48;61.91;100618.91;5058015;28;71057;-46
2023/08/07 06:02:25;;;;;;;6.63;4.00;;;;;;;33.49;61.67;100615.09;5059427;28;67271;-46
2023/08/07 06:05:16;;;;;;;5.20;4.10;;;;;;;33.56;61.53;100613.09;5055653;28;70862;-44
2023/08/07 06:08:05;;;;;;;5.30;4.27;;;;;;;33.55;61.80;100614.19;5049724;28;67250;-44
2023/08/07 06:10:56;;;;;;;6.05;3.88;;;;;;;33.55;61.49;100608.75;5056706;28;70515;-46
2023/08/07 06:13:45;;;;;;;4.97;4.07;;;;;;;33.61;61.49;100605.03;5051160;28;66421;-43
2023/08/07 06:16:34;;;;;;;4.50;3.90;;;;;;;33.58;61.83;100598.19;5048079;28;71145;-43
2023/08/07 06:19:26;;;;;;;4.90;4.50;;;;;;;33.68;61.53;100577.66;5050502;28;67317;-43
2023/08/07 06:22:20;;;;;;;4.50;3.70;;;;;;;33.69;60.89;100584.78;5051253;28;71342;-43
2023/08/07 06:25:10;;;;;;;4.63;4.22;;;;;;;33.73;61.21;100578.56;5058721;28;67254;-45
2023/08/07 06:27:59;;;;;;;4.63;4.22;;;;;;;33.66;60.96;100572.50;5053849;28;71186;-43
2023/08/07 06:30:49;;;;;;;4.60;4.20;;;;;;;33.42;61.38;100522.81;5058458;28;67308;-43
2023/08/07 06:33:39;;;;;;;4.20;3.80;;;;;;;33.84;61.07;100573.31;5052294;28;71072;-45
2023/08/07 06:36:29;;;;;;;4.85;4.45;;;;;;;33.86;61.04;100582.88;5050907;28;66893;-47
2023/08/07 06:39:18;;;;;;;4.63;4.32;;;;;;;33.88;60.96;100563.56;5051762;28;71089;-46
2023/08/07 06:42:08;;;;;;;4.57;4.22;;;;;;;33.63;60.50;100521.31;5052311;28;67577;-46
2023/08/07 06:44:58;;;;;;;4.10;3.78;;;;;;;33.93;60.87;100563.66;5053258;28;71449;-44
2023/08/07 06:47:47;;;;;;;6.55;5.00;;;;;;;33.99;60.34;100571.66;5053074;28;66858;-43
2023/08/07 06:50:36;;;;;;;6.95;4.57;;;;;;;34.03;60.25;100551.03;5050036;28;70422;-45
2023/08/07 06:53:26;;;;;;;6.05;5.45;;;;;;;34.07;60.21;100545.91;5045718;28;67212;-46
2023/08/07 06:56:16;;;;;;;5.68;5.20;;;;;;;34.03;60.20;100528.44;5059719;28;71094;-42
2023/08/07 06:59:05;;;;;;;6.03;5.50;;;;;;;34.16;60.10;100546.34;5047353;28;66352;-44
2023/08/07 07:01:55;;;;;;;8.50;5.95;;;;;;;34.19;60.01;100543.94;5055124;28;71184;-47
2023/08/07 07:04:45;;;;;;;8.38;5.65;;;;;;;34.24;60.06;100545.88;5060757;28;66519;-42
2023/08/07 07:07:35;;;;;;;7.30;5.85;;;;;;;34.23;59.72;100546.97;5054948;28;70567;-44
2023/08/07 07:10:24;;;;;;;8.77;5.43;;;;;;;34.28;59.75;100546.22;5048773;28;66633;-44
2023/08/07 07:13:14;;;;;;;7.53;5.78;;;;;;;34.07;59.58;100496.13;5059584;28;71173;-44
2023/08/07 07:16:03;;;;;;;6.97;6.28;;;;;;;34.36;59.50;100529.47;5057352;28;67232;-43
2023/08/07 07:18:55;;;;;;;6.57;6.13;;;;;;;34.35;59.57;100523.19;5053129;28;71304;-43
2023/08/07 07:21:45;;;;;;;8.73;7.10;;;;;;;34.43;59.00;100517.28;5041440;28;67257;-43
2023/08/07 07:24:35;;;;;;;7.38;6.78;;;;;;;34.46;58.80;100510.50;5054449;28;71143;-44
2023/08/07 07:27:25;;;;;;;10.25;6.70;;;;;;;34.49;58.98;100520.88;5058525;28;67267;-44
2023/08/07 07:30:15;;;;;;;8.15;6.20;;;;;;;34.50;58.75;100506.22;5056921;28;71109;-45
2023/08/07 07:33:04;;;;;;;7.18;6.53;;;;;;;34.54;59.35;100507.34;5054298;28;67463;-44
2023/08/07 07:35:54;;;;;;;7.57;6.88;;;;;;;34.58;58.55;100503.06;5052956;28;70879;-43
2023/08/07 07:38:45;;;;;;;7.60;6.85;;;;;;;34.60;58.63;100483.72;5050377;28;67873;-44
2023/08/07 07:41:35;;;;;;;9.43;6.60;;;;;;;34.62;58.61;100492.47;5048149;28;71243;-43
2023/08/07 07:44:24;;;;;;;8.68;6.85;;;;;;;34.67;58.97;100479.75;5058354;28;67244;-44
2023/08/07 07:47:14;;;;;;;7.93;7.13;;;;;;;34.68;58.61;100475.94;5052277;28;71160;-46
2023/08/07 07:50:08;;;;;;;7.75;6.90;;;;;;;34.70;58.41;100487.41;5056089;28;66858;-44
2023/08/07 07:52:58;;;;;;;8.07;7.03;;;;;;;34.69;58.31;100480.31;5058162;28;71149;-45
2023/08/07 07:55:48;;;;;;;8.55;7.20;;;;;;;34.77;58.56;100475.47;5056215;28;66393;-44
2023/08/07 07:58:37;;;;;;;9.85;8.07;;;;;;;34.78;58.13;100479.84;5055542;28;70321;-44
2023/08/07 08:01:28;;;;;;;9.38;8.45;;;;;;;34.77;57.92;100470.88;5052579;28;66534;-43
2023/08/07 08:04:19;;;;;;;9.23;8.27;;;;;;;34.83;57.53;100472.56;5050573;28;71201;-43
2023/08/07 08:07:08;;;;;;;12.60;9.05;;;;;;;34.78;58.14;100460.78;5039360;28;66601;-44
2023/08/07 08:09:58;;;;;;;9.25;8.32;;;;;;;34.85;57.80;100475.00;5047198;28;70565;-45
2023/08/07 08:12:48;;;;;;;9.48;8.52;;;;;;;34.86;57.36;100471.22;5048695;28;66604;-44
2023/08/07 08:15:37;;;;;;;9.55;8.63;;;;;;;34.89;57.49;100476.16;5053333;28;70458;-43
2023/08/07 08:18:26;;;;;;;9.18;7.53;;;;;;;34.89;57.58;100448.91;5040347;28;67285;-45
2023/08/07 08:21:16;;;;;;;9.90;8.98;;;;;;;34.91;57.71;100468.56;5051613;28;70352;-45
2023/08/07 08:24:06;;;;;;;10.13;8.52;;;;;;;34.95;57.36;100447.06;5040060;28;66607;-44
2023/08/07 08:26:56;;;;;;;9.32;8.45;;;;;;;34.95;57.24;100456.03;5058984;28;69864;-43
2023/08/07 08:29:45;;;;;;;9.52;8.65;;;;;;;34.93;57.09;100444.56;5055857;28;67474;-43
2023/08/07 08:32:35;;;;;;;8.95;8.13;;;;;;;34.97;57.62;100450.34;5058734;28;71304;-44
2023/08/07 08:35:24;;;;;;;10.32;9.13;;;;;;;34.97;57.55;100448.44;5051135;28;66556;-44
2023/08/07 08:38:16;;;;;;;14.80;8.88;;;;;;;34.98;57.54;100455.53;5059420;28;71676;-45
2023/08/07 08:41:10;;;;;;;8.68;8.07;;;;;;;34.99;57.11;100459.88;5057104;28;68119;-45
2023/08/07 08:44:02;;;;;;;10.40;9.50;;;;;;;34.98;57.00;100462.88;5057405;28;71044;-44
2023/08/07 08:46:55;;;;;;;;;;;;;;;34.73;57.49;100467.00;5059360;28;67169;-45
2023/08/07 08:49:47;;;;;;;9.45;8.65;;;;;;;34.96;57.05;100471.31;5049899;28;71203;-44
2023/08/07 08:52:37;;;;;;;;;;;;;;;34.74;56.96;100474.06;5059350;28;66564;-43
2023/08/07 08:55:27;;;;;;;11.15;9.40;;;;;;;34.97;57.07;100462.06;5057799;28;71388;-45
2023/08/07 08:58:17;;;;;;;9.70;8.90;;;;;;;34.57;57.18;100391.63;5059654;28;67231;-46
2023/08/07 09:01:08;;;;;;;10.63;8.75;;;;;;;35.03;56.97;100461.03;5050639;28;71183;-45
2023/08/07 09:03:58;;;;;;;9.20;8.50;;;;;;;34.99;56.90;100454.44;5052314;28;67505;-46
2023/08/07 09:06:49;;;;;;;12.98;8.80;;;;;;;35.03;56.91;100452.84;5053566;28;70548;-45
2023/08/07 09:09:40;;;;;;;10.30;9.30;;;;;;;34.87;57.28;100437.44;5049539;28;66543;-44
2023/08/07 09:12:33;;;;;;;10.45;8.02;;;;;;;34.48;56.74;100383.09;5048847;28;71238;-44
2023/08/07 09:15:25;;;;;;;9.55;8.82;;;;;;;34.89;56.79;100447.00;5054746;28;66944;-45
2023/08/07 09:18:16;;;;;;;9.95;9.02;;;;;;;35.03;57.26;100461.03;5054421;28;71123;-45
2023/08/07 09:21:06;;;;;;;9.83;9.00;;;;;;;35.02;57.25;100464.84;5051082;28;66557;-46
2023/08/07 09:23:55;;;;;;;11.70;8.70;;;;;;;35.04;57.11;100464.56;5057775;28;71106;-45
2023/08/07 09:26:45;;;;;;;9.82;8.85;;;;;;;35.05;56.67;100469.78;5054824;28;66257;-44
2023/08/07 09:29:36;;;;;;;9.10;8.30;;;;;;;35.05;56.53;100469.78;5055572;28;70999;-44
2023/08/07 09:32:25;;;;;;;9.63;8.82;;;;;;;35.04;56.95;100473.56;5058358;28;66653;-46
2023/08/07 09:35:14;;;;;;;9.40;8.52;;;;;;;34.88;56.65;100460.88;5055332;28;71054;-45
2023/08/07 09:38:04;;;;;;;10.00;8.98;;;;;;;34.97;56.59;100472.97;5052999;28;66668;-44
2023/08/07 09:40:53;;;;;;;9.50;8.50;;;;;;;34.98;57.01;100473.78;5053408;28;71155;-46
2023/08/07 09:43:43;;;;;;;12.27;8.80;;;;;;;35.03;57.08;100480.09;5057743;28;67337;-44
2023/08/07 09:46:40;;;;;;;9.07;8.30;;;;;;;34.95;56.99;100460.69;5053218;28;71131;-45
2023/08/07 09:49:33;;;;;;;10.02;9.07;;;;;;;34.92;56.71;100467.47;5061754;28;65624;-45
2023/08/07 09:52:26;;;;;;;8.85;8.13;;;;;;;34.52;57.22;100400.56;5051007;28;71157;-43
2023/08/07 09:55:18;;;;;;;9.07;8.27;;;;;;;35.02;56.96;100485.81;5054604;28;68359;-43
2023/08/07 09:58:17;;;;;;;10.73;8.70;;;;;;;34.90;56.68;100484.06;5055644;28;70643;-44
2023/08/07 10:01:09;;;;;;;9.45;8.63;;;;;;;35.01;57.09;100501.34;5049696;28;66568;-43
2023/08/07 10:03:58;;;;;;;8.68;7.90;;;;;;;35.01;56.83;100501.34;5054509;28;70616;-44
2023/08/07 10:06:49;;;;;;;8.38;7.70;;;;;;;34.89;57.33;100490.59;5053540;28;66498;-44
2023/08/07 10:09:39;;;;;;;9.32;8.05;;;;;;;34.99;57.28;100514.38;5055271;28;70308;-45
2023/08/07 10:12:29;;;;;;;11.95;9.07;;;;;;;34.83;56.94;100488.09;5050446;28;67424;-44
2023/08/07 10:15:21;;;;;;;10.13;9.27;;;;;;;34.58;57.91;100508.53;5059267;28;70262;-43
2023/08/07 10:18:10;;;;;;;9.85;8.95;;;;;;;34.40;59.92;100511.53;5057117;28;67440;-44
2023/08/07 10:21:02;;;;;;;16.52;8.75;;;;;;;33.76;60.38;100438.53;5054444;28;70719;-43
2023/08/07 10:23:54;;;;;;;10.23;8.68;;;;;;;33.74;61.04;100446.94;5071832;28;67344;-44
2023/08/07 10:26:45;;;;;;;9.43;8.60;;;;;;;34.13;61.78;100533.22;5053257;28;71293;-44
2023/08/07 10:29:37;;;;;;;9.52;8.73;;;;;;;34.14;62.02;100527.53;5057717;28;67191;-46
2023/08/07 10:32:27;;;;;;;9.95;9.00;;;;;;;34.08;62.34;100527.72;5059630;28;71122;-45
2023/08/07 10:35:33;;;;;;;9.60;8.77;;;;;;;34.01;62.76;100538.72;5058095;28;66593;-45
2023/08/07 10:38:24;;;;;;;10.40;9.63;;;;;;;34.04;62.68;100540.94;5059508;28;70416;-45
2023/08/07 10:41:14;;;;;;;10.85;9.52;;;;;;;33.87;63.04;100507.50;5060024;28;66462;-45
2023/08/07 10:44:04;;;;;;;11.55;9.00;;;;;;;33.95;63.26;100523.41;5057870;28;70544;-46
2023/08/07 10:46:56;;;;;;;11.00;9.18;;;;;;;33.96;63.54;100527.78;5060205;28;66563;-43
2023/08/07 10:49:46;;;;;;;;;;;;;;;33.69;64.60;100546.69;5058920;28;70630;-46
2023/08/07 10:52:39;;;;;;;14.52;10.35;;;;;;;33.36;63.72;100453.94;5059321;28;66910;-44
2023/08/07 10:55:45;;;;;;;17.25;10.75;;;;;;;34.00;63.80;100535.19;5056409;28;70944;-48
2023/08/07 10:58:38;;;;;;;12.80;9.82;;;;;;;34.22;62.60;100543.44;5058980;28;66402;-46
2023/08/07 11:01:39;;;;;;;13.60;9.75;;;;;;;34.28;63.66;100547.03;5057414;28;71197;-46
2023/08/07 11:04:29;;;;;;;11.13;9.35;;;;;;;34.25;62.78;100525.78;5054054;28;67303;-47
2023/08/07 11:07:27;;;;;;;14.20;9.30;;;;;;;34.42;63.38;100552.94;5057777;28;71118;-45
2023/08/07 11:10:17;;;;;;;12.43;9.13;;;;;;;34.43;62.75;100543.69;5054174;28;67153;-47
2023/08/07 11:13:07;;;;;;;10.85;9.55;;;;;;;34.51;62.58;100553.31;5059468;28;71295;-48
2023/08/07 11:15:57;;;;;;;12.52;8.88;;;;;;;34.51;61.92;100540.53;5056599;28;66393;-47
2023/08/07 11:18:49;;;;;;;11.38;9.35;;;;;;;34.47;62.12;100533.97;5059211;28;71018;-48
2023/08/07 11:21:40;;;;;;;10.40;9.43;;;;;;;34.52;62.51;100541.34;5041742;28;66612;-47
2023/08/07 11:24:30;;;;;;;10.50;8.90;;;;;;;34.52;61.99;100544.91;5058615;28;70794;-47
2023/08/07 11:27:22;;;;;;;10.77;9.52;;;;;;;34.52;62.27;100563.97;5057425;28;67180;-47
2023/08/07 11:30:13;;;;;;;11.02;8.55;;;;;;;34.46;62.57;100548.63;5053698;28;71175;-48
2023/08/07 11:33:02;;;;;;;12.32;9.00;;;;;;;34.53;62.57;100549.28;5053229;28;66575;-47
2023/08/07 11:35:53;;;;;;;10.55;8.52;;;;;;;34.44;62.59;100535.28;5056854;28;70720;-46
2023/08/07 11:38:44;;;;;;;12.75;8.73;;;;;;;34.45;62.36;100547.00;5059797;28;67485;-46
2023/08/07 11:41:33;;;;;;;16.10;8.73;;;;;;;34.51;62.35;100556.88;5058437;28;71248;-45
2023/08/07 11:44:23;;;;;;;9.57;8.23;;;;;;;34.50;62.38;100566.13;5054752;28;67340;-45
2023/08/07 11:47:16;;;;;;;10.70;8.55;;;;;;;34.49;62.29;100567.19;5048372;28;71514;-45
2023/08/07 11:50:07;;;;;;;9.15;8.27;;;;;;;34.40;62.60;100565.97;5059465;28;66745;-47
2023/08/07 11:53:00;;;;;;;10.57;8.75;;;;;;;34.46;62.42;100576.72;5056534;28;70637;-47
2023/08/07 11:56:01;;;;;;;8.55;7.70;;;;;;;33.92;62.94;100499.41;5055212;28;67592;-46
2023/08/07 11:58:53;;;;;;;15.38;8.05;;;;;;;34.33;62.36;100565.38;5053859;28;70580;-45
2023/08/07 12:01:43;;;;;;;9.68;8.07;;;;;;;34.43;62.28;100590.00;5047805;28;67231;-46
2023/08/07 12:04:36;;;;;;;9.77;7.97;;;;;;;33.90;63.05;100512.44;5056092;28;71136;-46
2023/08/07 12:07:26;;;;;;;8.48;7.60;;;;;;;34.41;62.68;100598.44;5053203;28;67096;-47
2023/08/07 12:10:19;;;;;;;9.27;8.43;;;;;;;34.37;62.92;100601.88;5049043;28;70912;-45
2023/08/07 12:13:09;;;;;;;8.80;7.93;;;;;;;34.39;63.21;100610.63;5034359;28;66665;-48
2023/08/07 12:15:59;;;;;;;12.77;8.90;;;;;;;34.35;63.27;100623.09;5050113;28;70136;-45
2023/08/07 12:18:50;;;;;;;87.15;10.52;;;;;;;33.83;63.74;100552.63;5058568;28;66719;-47
2023/08/07 12:21:40;;;;;;;50.33;10.02;;;;;;;33.85;64.67;100572.22;5051849;28;71122;-44
2023/08/07 12:24:29;;;;;;;21.85;9.07;;;;;;;33.96;65.80;100648.34;5060015;28;66212;-46
2023/08/07 12:27:19;;;;;;;23.08;8.70;;;;;;;33.80;67.39;100655.41;5057038;28;70887;-48
2023/08/07 12:30:09;;;;;;;23.55;8.93;;;;;;;33.70;67.83;100655.25;5054625;28;66794;-45
2023/08/07 12:32:59;;;;;;;13.85;8.73;;;;;;;33.68;68.20;100651.94;5054207;28;71150;-46
2023/08/07 12:35:48;;;;;;;23.05;8.68;;;;;;;33.55;68.73;100641.38;5055943;28;67188;-46
2023/08/07 12:38:38;;;;;;;9.57;7.55;;;;;;;33.64;69.18;100667.09;5051668;28;70657;-45
2023/08/07 12:41:27;;;;;;;14.75;7.35;;;;;;;33.49;67.82;100669.50;5046790;28;66895;-45
2023/08/07 12:44:19;;;;;;;9.38;7.80;;;;;;;33.33;66.84;100676.56;5058037;28;71178;-46
2023/08/07 12:47:09;;;;;;;10.05;7.28;;;;;;;33.21;66.16;100667.59;5050114;28;67314;-47
2023/08/07 12:49:59;;;;;;;9.98;7.65;;;;;;;32.87;65.54;100641.06;5052733;28;71099;-46
2023/08/07 12:52:49;;;;;;;7.80;7.10;;;;;;;33.03;64.71;100687.63;5054630;28;67301;-45
2023/08/07 12:55:39;;;;;;;8.50;7.70;;;;;;;32.88;63.94;100679.94;5056862;28;69454;-47
2023/08/07 12:58:29;;;;;;;9.63;7.70;;;;;;;32.74;63.51;100676.66;5057505;28;67237;-45
2023/08/07 13:01:18;;;;;;;12.27;7.97;;;;;;;32.84;62.89;100704.03;5055480;28;71082;-47
2023/08/07 13:04:08;;;;;;;12.02;8.05;;;;;;;32.75;62.13;100708.19;5055792;28;67143;-45
2023/08/07 13:06:58;;;;;;;16.48;8.93;;;;;;;32.69;62.86;100703.72;5051161;28;70957;-46
2023/08/07 13:09:48;;;;;;;8.35;7.28;;;;;;;32.66;62.48;100712.31;5050607;28;67258;-45